Terminal Aerodrome Forecast
Issued by NWS

Home | Current Version | Previous Version | Text Only | Print | Product List | Glossary On
Versions: 1 2 3 4 5 6 7 8 9 10 11 12 13 14 15 16 17 18 19 20 21 22 23 24 25 26 27 28 29 30 31 32
000
FTUS41 KALY 290245 AAA
TAFPSF
TAF AMD
KPSF 290245Z 2903/2924 00000KT 1SM BR OVC003
     FM290700 32005KT 3SM BR OVC015
      TEMPO 2908/2912 2SM BR OVC007
     FM291400 32010G16KT P6SM OVC015
     FM291600 32013G23KT P6SM OVC025
     FM291800 32018G28KT P6SM BKN035=

USA.gov is the U.S. government's official web portal to all federal, state and local government web resources and services.